Time;durP1;ratioP1;P1;durP2;ratioP2;P2;SDS_P1;SDS_P2;PMS_P1;PMS_P2;Temp;Humidity;BMP_temperature;BMP_pressure;BME280_temperature;BME280_humidity;BME280_pressure;Samples;Min_cycle;Max_cycle;Signal;HPM_P1;HPM_P2
2022/01/29 00:01:43;;;;;;;18.20;9.63;;;4.00;99.90;;;;;;5092672;28;20206;-54
2022/01/29 00:04:11;;;;;;;20.60;10.83;;;4.00;99.90;;;;;;5093540;28;20251;-55
2022/01/29 00:06:39;;;;;;;21.27;10.67;;;4.00;99.90;;;;;;5092618;28;20202;-55
2022/01/29 00:09:13;;;;;;;24.93;10.87;;;4.00;99.90;;;;;;5093397;28;20277;-55
2022/01/29 00:11:43;;;;;;;16.40;9.93;;;4.00;99.90;;;;;;5074600;28;20212;-55
2022/01/29 00:14:11;;;;;;;20.77;10.43;;;4.00;99.90;;;;;;5091847;28;20282;-55
2022/01/29 00:16:40;;;;;;;17.67;11.03;;;4.00;99.90;;;;;;5093312;28;20253;-54
2022/01/29 00:19:08;;;;;;;18.63;10.70;;;4.00;99.90;;;;;;5092751;28;20235;-54
2022/01/29 00:21:37;;;;;;;22.30;11.10;;;4.10;99.90;;;;;;5092908;28;20249;-55
2022/01/29 00:24:05;;;;;;;22.30;10.93;;;4.10;99.90;;;;;;5093808;28;20202;-55
2022/01/29 00:26:33;;;;;;;26.33;11.40;;;4.10;99.90;;;;;;5092315;28;20732;-54
2022/01/29 00:29:09;;;;;;;18.07;10.90;;;4.10;99.90;;;;;;5091769;28;20254;-54
2022/01/29 00:31:37;;;;;;;20.70;11.83;;;4.10;99.90;;;;;;5091659;28;20673;-55
2022/01/29 00:34:05;;;;;;;21.00;11.97;;;4.00;99.90;;;;;;5092171;28;20197;-55
2022/01/29 00:36:33;;;;;;;19.17;12.53;;;4.10;99.90;;;;;;5092431;28;20216;-55
2022/01/29 00:39:02;;;;;;;19.23;12.97;;;4.10;99.90;;;;;;5091961;28;20275;-54
2022/01/29 00:41:30;;;;;;;27.83;13.83;;;4.10;99.90;;;;;;5092159;28;20248;-55
2022/01/29 00:43:58;;;;;;;22.00;13.13;;;4.10;99.90;;;;;;5091654;28;20217;-54
2022/01/29 00:46:28;;;;;;;24.00;13.80;;;4.10;99.90;;;;;;5092076;28;20293;-55
2022/01/29 00:48:56;;;;;;;23.10;13.43;;;4.00;99.90;;;;;;5091711;28;20213;-56
2022/01/29 00:51:25;;;;;;;22.27;14.33;;;4.10;99.90;;;;;;5088303;28;20201;-54
2022/01/29 00:53:53;;;;;;;26.57;14.53;;;4.00;99.90;;;;;;5086022;28;20728;-54
2022/01/29 00:56:21;;;;;;;21.90;13.33;;;4.10;99.90;;;;;;5090302;28;20269;-54
2022/01/29 00:58:49;;;;;;;23.20;14.07;;;4.00;99.90;;;;;;5072561;28;20259;-55
2022/01/29 01:01:17;;;;;;;25.77;14.63;;;4.10;99.90;;;;;;5089591;28;20696;-55
2022/01/29 01:03:47;;;;;;;22.53;14.83;;;4.10;99.90;;;;;;5090907;28;20653;-55
2022/01/29 01:06:15;;;;;;;22.00;14.10;;;4.10;99.90;;;;;;5090776;28;20257;-55
2022/01/29 01:08:43;;;;;;;23.27;14.23;;;4.20;99.90;;;;;;5091061;28;20612;-55
2022/01/29 01:11:12;;;;;;;22.87;14.93;;;4.20;99.90;;;;;;5094666;28;20244;-55
2022/01/29 01:13:40;;;;;;;28.47;15.07;;;4.20;99.90;;;;;;5091220;28;20220;-55
2022/01/29 01:16:08;;;;;;;25.37;14.30;;;4.20;99.90;;;;;;5090891;28;20277;-55
2022/01/29 01:18:37;;;;;;;24.13;14.87;;;4.20;99.90;;;;;;5091961;28;20201;-55
2022/01/29 01:21:06;;;;;;;19.57;14.80;;;4.20;99.90;;;;;;5091502;28;20215;-55
2022/01/29 01:23:34;;;;;;;23.57;15.00;;;4.10;99.90;;;;;;5087386;28;20224;-54
2022/01/29 01:26:04;;;;;;;26.17;14.80;;;4.20;99.90;;;;;;5071492;28;20251;-55
2022/01/29 01:28:32;;;;;;;25.27;14.93;;;4.20;99.90;;;;;;5071123;28;20752;-55
2022/01/29 01:31:00;;;;;;;27.40;14.60;;;4.20;99.90;;;;;;5071239;28;20214;-55
2022/01/29 01:33:28;;;;;;;20.97;14.57;;;4.20;99.90;;;;;;5070334;28;20240;-55
2022/01/29 01:36:01;;;;;;;24.43;14.53;;;4.20;99.90;;;;;;5082541;28;20231;-55
2022/01/29 01:38:36;;;;;;;23.83;15.07;;;4.20;99.90;;;;;;5091508;28;20212;-55
2022/01/29 01:41:08;;;;;;;23.03;14.60;;;4.20;99.90;;;;;;5090977;28;20207;-55
2022/01/29 01:43:37;;;;;;;22.77;14.20;;;4.30;99.90;;;;;;5091812;28;20224;-54
2022/01/29 01:46:05;;;;;;;25.40;15.47;;;4.30;99.90;;;;;;5090304;28;20572;-54
2022/01/29 01:48:33;;;;;;;25.00;15.03;;;4.30;99.90;;;;;;5091555;28;20671;-55
2022/01/29 01:51:01;;;;;;;18.27;13.77;;;4.20;99.90;;;;;;5090887;28;20844;-55
2022/01/29 01:53:31;;;;;;;22.63;14.60;;;4.20;99.90;;;;;;5101709;28;20317;-55
2022/01/29 01:55:59;;;;;;;26.60;15.43;;;4.30;99.90;;;;;;5112088;28;20687;-55
2022/01/29 01:58:27;;;;;;;20.90;14.53;;;4.30;99.90;;;;;;5098370;28;20695;-56
2022/01/29 02:00:55;;;;;;;24.20;15.20;;;4.30;99.90;;;;;;5091612;28;20234;-54
2022/01/29 02:03:23;;;;;;;23.17;14.53;;;4.30;99.90;;;;;;5090991;28;20226;-55
2022/01/29 02:05:53;;;;;;;25.40;15.37;;;4.30;99.90;;;;;;5091028;28;20635;-55
2022/01/29 02:08:21;;;;;;;23.40;15.03;;;4.40;99.90;;;;;;5090983;28;20457;-55
2022/01/29 02:10:51;;;;;;;23.07;13.93;;;4.30;99.90;;;;;;5104778;28;20238;-55
2022/01/29 02:13:19;;;;;;;19.63;14.27;;;4.40;99.90;;;;;;5095477;28;20262;-55
2022/01/29 02:15:48;;;;;;;25.60;15.93;;;4.30;99.90;;;;;;5090459;28;20827;-55
2022/01/29 02:18:16;;;;;;;26.03;14.83;;;4.30;99.90;;;;;;5091332;28;20324;-55
2022/01/29 02:20:45;;;;;;;25.73;15.93;;;4.30;99.90;;;;;;5091371;28;20234;-54
2022/01/29 02:23:15;;;;;;;27.13;15.70;;;4.30;99.90;;;;;;5089836;28;20229;-55
2022/01/29 02:25:45;;;;;;;29.80;15.27;;;4.40;99.90;;;;;;5070790;28;20746;-55
2022/01/29 02:28:15;;;;;;;28.87;15.07;;;4.40;99.90;;;;;;5070877;28;20271;-55
2022/01/29 02:30:45;;;;;;;21.63;14.17;;;4.40;99.90;;;;;;5070268;28;20212;-55
2022/01/29 02:33:16;;;;;;;21.20;14.07;;;4.50;99.90;;;;;;5070509;28;20781;-54
2022/01/29 02:35:46;;;;;;;24.57;15.00;;;4.50;99.90;;;;;;5080584;28;20199;-54
2022/01/29 02:38:18;;;;;;;25.17;15.70;;;4.50;99.90;;;;;;5094778;28;20268;-55
2022/01/29 02:40:49;;;;;;;21.40;14.47;;;4.50;99.90;;;;;;5094252;28;20239;-54
2022/01/29 02:43:19;;;;;;;24.13;14.37;;;4.50;99.90;;;;;;5095012;28;20275;-55
2022/01/29 02:45:48;;;;;;;26.10;14.90;;;4.50;99.90;;;;;;5094523;28;20214;-54
2022/01/29 02:48:17;;;;;;;26.40;14.77;;;4.50;99.90;;;;;;5101437;28;20285;-55
2022/01/29 02:50:45;;;;;;;22.17;13.83;;;4.50;99.90;;;;;;5115138;28;20260;-55
2022/01/29 02:53:15;;;;;;;23.00;14.50;;;4.50;99.90;;;;;;5114583;28;20243;-55
2022/01/29 02:55:43;;;;;;;25.27;14.17;;;4.60;99.90;;;;;;5112153;28;20260;-55
2022/01/29 02:58:11;;;;;;;23.80;13.53;;;4.60;99.90;;;;;;5090552;28;20240;-55
2022/01/29 03:00:39;;;;;;;24.20;14.67;;;4.60;99.90;;;;;;5079685;28;20572;-55
2022/01/29 03:03:08;;;;;;;24.77;14.20;;;4.50;99.90;;;;;;5094570;28;20227;-55
2022/01/29 03:05:36;;;;;;;24.90;14.47;;;4.60;99.90;;;;;;5094224;28;20571;-55
2022/01/29 03:08:04;;;;;;;24.07;14.60;;;4.60;99.90;;;;;;5094290;28;20245;-56
2022/01/29 03:10:34;;;;;;;23.00;14.20;;;4.60;99.90;;;;;;5082200;28;20204;-55
2022/01/29 03:13:03;;;;;;;23.67;14.57;;;4.50;99.90;;;;;;5074119;28;20224;-54
2022/01/29 03:15:31;;;;;;;20.23;13.90;;;4.50;99.90;;;;;;5084389;28;20689;-55
2022/01/29 03:17:59;;;;;;;21.87;14.17;;;4.60;99.90;;;;;;5094067;28;20256;-55
2022/01/29 03:20:28;;;;;;;21.83;12.83;;;4.60;99.90;;;;;;5094311;28;20241;-54
2022/01/29 03:22:56;;;;;;;25.47;14.37;;;4.70;99.90;;;;;;5094095;28;20722;-55
2022/01/29 03:25:24;;;;;;;22.60;13.27;;;4.70;99.90;;;;;;5112221;28;20202;-55
2022/01/29 03:27:53;;;;;;;22.47;13.40;;;4.70;99.90;;;;;;5114798;28;20240;-54
2022/01/29 03:30:21;;;;;;;19.47;12.50;;;4.70;99.90;;;;;;5073267;28;20628;-55
2022/01/29 03:32:50;;;;;;;22.67;13.03;;;4.70;99.90;;;;;;5085484;28;20274;-54
2022/01/29 03:35:18;;;;;;;21.57;12.93;;;4.80;99.90;;;;;;5093625;28;20255;-54
2022/01/29 03:37:46;;;;;;;22.07;13.17;;;4.80;99.90;;;;;;5093329;28;20651;-54
2022/01/29 03:40:14;;;;;;;23.27;12.73;;;4.80;99.90;;;;;;5093642;28;20669;-54
2022/01/29 03:42:46;;;;;;;19.83;12.33;;;4.80;99.90;;;;;;5092826;28;20770;-54
2022/01/29 03:45:19;;;;;;;22.43;13.77;;;4.80;99.90;;;;;;5093411;28;20234;-55
2022/01/29 03:47:47;;;;;;;23.13;13.43;;;4.80;99.90;;;;;;5092361;28;20187;-54
2022/01/29 03:50:15;;;;;;;24.50;13.73;;;4.80;99.90;;;;;;5093872;28;20239;-54
2022/01/29 03:52:43;;;;;;;21.13;12.77;;;4.90;99.90;;;;;;5087384;28;20236;-55
2022/01/29 03:55:12;;;;;;;22.10;13.13;;;4.80;99.90;;;;;;5091918;28;20235;-55
2022/01/29 03:57:40;;;;;;;24.63;12.93;;;4.80;99.90;;;;;;5093017;28;20257;-55
2022/01/29 04:00:09;;;;;;;22.80;12.43;;;4.90;99.90;;;;;;5080621;28;20197;-55
2022/01/29 04:02:38;;;;;;;24.50;13.30;;;4.90;99.90;;;;;;5093396;28;20228;-54
2022/01/29 04:05:07;;;;;;;21.97;12.50;;;4.90;99.90;;;;;;5083368;28;20255;-55
2022/01/29 04:07:35;;;;;;;23.93;13.27;;;4.90;99.90;;;;;;5077870;28;20204;-54
2022/01/29 04:10:04;;;;;;;24.70;13.13;;;4.90;99.90;;;;;;5100235;28;20231;-54
2022/01/29 04:12:35;;;;;;;23.73;13.80;;;4.90;99.90;;;;;;5113286;28;20260;-57
2022/01/29 04:15:03;;;;;;;26.30;13.77;;;4.90;99.90;;;;;;5108187;28;20567;-55
2022/01/29 04:17:31;;;;;;;21.83;12.77;;;4.90;99.90;;;;;;5093425;28;20262;-55
2022/01/29 04:20:00;;;;;;;28.93;13.83;;;5.00;99.90;;;;;;5093056;28;20207;-55
2022/01/29 04:22:28;;;;;;;22.40;13.60;;;5.00;99.90;;;;;;5092608;28;20285;-54
2022/01/29 04:24:56;;;;;;;23.80;13.27;;;5.00;99.90;;;;;;5107400;28;20258;-55
2022/01/29 04:27:34;;;;;;;23.43;13.13;;;5.00;99.90;;;;;;5113282;28;20956;-55
2022/01/29 04:30:07;;;;;;;22.17;13.40;;;5.00;99.90;;;;;;5093329;28;20246;-55
2022/01/29 04:32:57;;;;;;;22.80;13.60;;;5.10;99.90;;;;;;5092217;28;20292;-55
2022/01/29 04:35:27;;;;;;;25.10;13.67;;;5.10;99.90;;;;;;5092278;28;20262;-55
2022/01/29 04:37:55;;;;;;;25.87;13.43;;;5.10;99.90;;;;;;5092384;28;20262;-55
2022/01/29 04:40:23;;;;;;;21.63;13.10;;;5.10;99.90;;;;;;5095927;28;20242;-55
2022/01/29 04:42:51;;;;;;;27.37;13.03;;;5.10;99.90;;;;;;5112690;28;20255;-55
2022/01/29 04:45:20;;;;;;;25.33;12.93;;;5.20;99.90;;;;;;5112656;28;20240;-55
2022/01/29 04:47:48;;;;;;;22.20;13.30;;;5.10;99.90;;;;;;5113189;28;20212;-54
2022/01/29 04:50:16;;;;;;;24.10;12.90;;;5.10;99.90;;;;;;5103290;28;20685;-55
2022/01/29 04:52:45;;;;;;;20.37;13.47;;;5.10;99.90;;;;;;5096284;28;20610;-55
2022/01/29 04:55:13;;;;;;;23.23;13.47;;;5.10;99.90;;;;;;5091943;28;20232;-55
2022/01/29 04:57:41;;;;;;;22.50;12.80;;;5.10;99.90;;;;;;5092453;28;20276;-55
2022/01/29 05:00:19;;;;;;;27.57;13.80;;;5.10;99.90;;;;;;5079958;28;20205;-54
2022/01/29 05:02:47;;;;;;;24.77;13.23;;;5.10;99.90;;;;;;5071354;28;20236;-55
2022/01/29 05:05:16;;;;;;;26.80;13.63;;;5.10;99.90;;;;;;5088926;28;20208;-54
2022/01/29 05:07:46;;;;;;;27.50;13.43;;;5.10;99.90;;;;;;5091782;28;20205;-54
2022/01/29 05:10:14;;;;;;;23.93;13.53;;;5.10;99.90;;;;;;5100272;28;20198;-55
2022/01/29 05:12:48;;;;;;;20.27;13.73;;;5.20;99.90;;;;;;5111868;28;20259;-53
2022/01/29 05:15:23;;;;;;;25.00;13.17;;;5.20;99.90;;;;;;5103366;28;20207;-55
2022/01/29 05:28:55;;;;;;;26.80;14.20;;;5.10;99.90;;;;;;5076468;28;20226;-55
2022/01/29 05:31:24;;;;;;;26.20;14.53;;;5.10;99.90;;;;;;5073136;28;20763;-55
2022/01/29 05:33:52;;;;;;;26.63;14.97;;;5.00;99.90;;;;;;5075225;28;20221;-55
2022/01/29 05:36:20;;;;;;;21.87;14.17;;;5.00;99.90;;;;;;5085438;28;20203;-54
2022/01/29 05:38:50;;;;;;;24.13;14.13;;;5.00;99.90;;;;;;5091235;28;20262;-55
2022/01/29 05:41:18;;;;;;;24.67;14.37;;;5.00;99.90;;;;;;5091880;28;20250;-55
2022/01/29 05:43:46;;;;;;;26.80;14.30;;;5.00;99.90;;;;;;5091389;28;20753;-55
2022/01/29 05:46:15;;;;;;;21.63;13.47;;;5.00;99.90;;;;;;5104408;28;20238;-55
2022/01/29 05:48:44;;;;;;;23.37;14.17;;;5.00;99.90;;;;;;5091394;28;20211;-55
2022/01/29 05:51:13;;;;;;;26.03;14.93;;;5.00;99.90;;;;;;5090748;28;20657;-54
2022/01/29 05:53:41;;;;;;;27.47;15.47;;;5.00;99.90;;;;;;5090709;28;20626;-54
2022/01/29 05:56:10;;;;;;;24.60;14.67;;;4.90;99.90;;;;;;5090910;28;20703;-55
2022/01/29 05:58:38;;;;;;;25.37;14.63;;;5.00;99.90;;;;;;5090974;28;20703;-55
2022/01/29 06:01:07;;;;;;;27.60;16.00;;;5.00;99.90;;;;;;5090549;28;20315;-55
2022/01/29 06:03:35;;;;;;;28.90;16.03;;;5.00;99.90;;;;;;5090634;28;20664;-61
2022/01/29 06:06:03;;;;;;;23.67;14.47;;;5.00;99.90;;;;;;5090782;28;20200;-55
2022/01/29 06:08:31;;;;;;;28.47;16.30;;;4.90;99.90;;;;;;5091785;28;20261;-54
2022/01/29 06:11:00;;;;;;;30.33;17.00;;;4.90;99.90;;;;;;5105744;28;20231;-55
2022/01/29 06:13:29;;;;;;;25.10;15.10;;;4.80;99.90;;;;;;5111152;28;20299;-55
2022/01/29 06:15:57;;;;;;;26.33;15.20;;;4.90;99.90;;;;;;5111333;28;20574;-54
2022/01/29 06:18:26;;;;;;;26.77;15.63;;;4.90;99.90;;;;;;5111124;28;20318;-54
2022/01/29 06:20:56;;;;;;;26.27;14.77;;;4.90;99.90;;;;;;5105375;28;20200;-56
2022/01/29 06:23:30;;;;;;;30.33;15.97;;;4.90;99.90;;;;;;5092787;28;20597;-54
2022/01/29 06:25:59;;;;;;;27.00;16.20;;;4.90;99.90;;;;;;5111301;28;20226;-55
2022/01/29 06:28:27;;;;;;;27.00;15.57;;;4.90;99.90;;;;;;5111377;28;20251;-55
2022/01/29 06:30:56;;;;;;;25.47;14.53;;;4.90;99.90;;;;;;5110699;28;20206;-55
2022/01/29 06:33:24;;;;;;;23.33;14.77;;;5.00;99.90;;;;;;5110698;28;20599;-53
2022/01/29 06:35:53;;;;;;;26.40;15.13;;;5.00;99.90;;;;;;5100596;28;20235;-54
2022/01/29 06:38:21;;;;;;;27.50;15.53;;;5.00;99.90;;;;;;5090456;28;20220;-55
2022/01/29 06:40:50;;;;;;;21.63;14.93;;;5.10;99.90;;;;;;5090717;28;20239;-55
2022/01/29 06:43:18;;;;;;;23.87;14.13;;;5.10;99.90;;;;;;5090422;28;20644;-54
2022/01/29 06:45:47;;;;;;;23.93;14.43;;;5.10;99.90;;;;;;5090006;28;20720;-54
2022/01/29 06:48:17;;;;;;;22.20;13.07;;;5.10;99.90;;;;;;5090314;28;20202;-54
2022/01/29 06:50:45;;;;;;;20.87;12.13;;;5.20;99.90;;;;;;5081730;28;20237;-55
2022/01/29 06:53:13;;;;;;;17.90;11.77;;;5.20;99.90;;;;;;5090140;28;20282;-55
2022/01/29 06:55:41;;;;;;;22.17;11.57;;;5.20;99.90;;;;;;5089553;28;20231;-54
2022/01/29 06:58:09;;;;;;;14.63;10.67;;;5.30;99.90;;;;;;5089860;28;20235;-54
2022/01/29 07:00:57;;;;;;;18.33;11.97;;;5.30;99.90;;;;;;5087058;28;20208;-54
2022/01/29 07:03:27;;;;;;;18.27;12.20;;;5.30;99.90;;;;;;5089365;28;20256;-55
2022/01/29 07:05:55;;;;;;;18.43;11.10;;;5.30;99.90;;;;;;5089930;28;20209;-54
2022/01/29 07:08:23;;;;;;;17.17;10.97;;;5.40;99.90;;;;;;5089615;28;20245;-55
2022/01/29 07:10:52;;;;;;;17.57;10.60;;;5.40;99.90;;;;;;5090363;28;20258;-54
2022/01/29 07:13:21;;;;;;;15.47;11.07;;;5.40;99.90;;;;;;5090298;28;20220;-55
2022/01/29 07:15:51;;;;;;;17.23;10.20;;;5.40;99.90;;;;;;5087322;28;20232;-55
2022/01/29 07:18:19;;;;;;;16.77;10.73;;;5.40;99.90;;;;;;5090322;28;20209;-55
2022/01/29 07:20:48;;;;;;;17.10;11.57;;;5.40;99.90;;;;;;5090413;28;20201;-55
2022/01/29 07:23:16;;;;;;;14.83;10.47;;;5.40;99.90;;;;;;5091899;28;20270;-55
2022/01/29 07:25:44;;;;;;;17.50;10.93;;;5.40;99.90;;;;;;5093845;28;20213;-56
2022/01/29 07:28:12;;;;;;;15.13;9.40;;;5.40;99.90;;;;;;5094415;28;20239;-55
2022/01/29 07:30:41;;;;;;;13.20;9.73;;;5.40;99.90;;;;;;5110552;28;20627;-55
2022/01/29 07:33:09;;;;;;;14.77;9.80;;;5.40;99.90;;;;;;5114392;28;20228;-55
2022/01/29 07:35:37;;;;;;;12.30;8.67;;;5.40;99.90;;;;;;5105877;28;20217;-55
2022/01/29 07:38:06;;;;;;;11.70;8.77;;;5.40;99.90;;;;;;5094982;28;20237;-56
2022/01/29 07:40:34;;;;;;;12.43;8.30;;;5.40;99.90;;;;;;5093818;28;20265;-56
2022/01/29 07:43:03;;;;;;;12.50;9.17;;;5.40;99.90;;;;;;5093111;28;20594;-56
2022/01/29 07:45:31;;;;;;;13.60;9.10;;;5.40;99.90;;;;;;5093359;28;20263;-55
2022/01/29 07:47:59;;;;;;;13.70;10.17;;;5.40;99.90;;;;;;5093529;28;20211;-55
2022/01/29 07:50:27;;;;;;;17.27;11.70;;;5.50;99.90;;;;;;5093443;28;20219;-55
2022/01/29 07:52:57;;;;;;;19.70;13.27;;;5.50;99.90;;;;;;5087016;28;20297;-55
2022/01/29 07:55:27;;;;;;;24.27;17.73;;;5.50;99.90;;;;;;5093261;28;20728;-55
2022/01/29 07:57:55;;;;;;;27.37;17.10;;;5.50;99.90;;;;;;5073091;28;20212;-55
2022/01/29 08:00:23;;;;;;;15.10;11.80;;;5.50;99.90;;;;;;5088015;28;21109;-55
2022/01/29 08:02:51;;;;;;;14.10;8.70;;;5.60;99.90;;;;;;5092904;28;20250;-56
2022/01/29 08:05:19;;;;;;;10.03;7.00;;;5.60;99.90;;;;;;5093320;28;20263;-55
2022/01/29 08:07:48;;;;;;;8.80;6.00;;;5.60;99.90;;;;;;5093011;28;20236;-55
2022/01/29 08:10:16;;;;;;;7.50;6.20;;;5.60;99.90;;;;;;5101724;28;20567;-54
2022/01/29 08:12:46;;;;;;;7.67;5.53;;;5.70;99.90;;;;;;5113161;28;20700;-54
2022/01/29 08:15:14;;;;;;;7.07;6.00;;;5.70;99.90;;;;;;5092436;28;20251;-55
2022/01/29 08:17:42;;;;;;;8.77;6.50;;;5.60;99.90;;;;;;5093040;28;20227;-55
2022/01/29 08:20:12;;;;;;;7.57;5.93;;;5.60;99.90;;;;;;5092323;28;20732;-55
2022/01/29 08:22:40;;;;;;;9.03;7.67;;;5.70;99.90;;;;;;5091845;28;20221;-55
2022/01/29 08:25:09;;;;;;;8.67;6.70;;;5.60;99.90;;;;;;5107578;28;20213;-54
2022/01/29 08:27:37;;;;;;;10.97;8.13;;;5.60;99.90;;;;;;5089911;28;20208;-55
2022/01/29 08:30:10;;;;;;;12.37;9.03;;;5.60;99.90;;;;;;5089322;28;20709;-55
2022/01/29 08:32:42;;;;;;;10.70;7.83;;;5.60;99.90;;;;;;5091113;28;20482;-55
2022/01/29 08:35:11;;;;;;;11.03;7.83;;;5.50;99.90;;;;;;5091281;28;20235;-54
2022/01/29 08:37:39;;;;;;;13.53;8.73;;;5.60;99.90;;;;;;5085923;28;20244;-55
2022/01/29 08:40:08;;;;;;;12.70;7.87;;;5.50;99.90;;;;;;5091757;28;20220;-56
2022/01/29 08:42:37;;;;;;;10.53;7.50;;;5.60;99.90;;;;;;5091813;28;20263;-55
2022/01/29 08:45:09;;;;;;;15.33;8.87;;;5.50;99.90;;;;;;5089746;28;20343;-55
2022/01/29 08:47:39;;;;;;;9.87;8.43;;;5.50;99.90;;;;;;5083998;28;20204;-54
2022/01/29 08:50:08;;;;;;;9.83;8.40;;;5.60;99.90;;;;;;5091610;28;20665;-55
2022/01/29 08:52:37;;;;;;;14.10;9.17;;;5.60;99.90;;;;;;5090641;28;20307;-55
2022/01/29 08:55:07;;;;;;;11.97;8.80;;;5.60;99.90;;;;;;5087217;28;20254;-55
2022/01/29 08:57:36;;;;;;;9.93;7.70;;;5.50;99.90;;;;;;5091371;28;20204;-55
2022/01/29 09:00:07;;;;;;;10.90;8.47;;;5.50;99.90;;;;;;5089745;28;20253;-55
2022/01/29 09:02:35;;;;;;;12.30;9.67;;;5.50;99.90;;;;;;5091381;28;20260;-55
2022/01/29 09:05:06;;;;;;;24.27;16.23;;;5.50;99.90;;;;;;5091074;28;20234;-55
2022/01/29 09:07:34;;;;;;;24.50;15.20;;;5.50;99.90;;;;;;5090142;28;20268;-54
2022/01/29 09:10:03;;;;;;;12.63;8.73;;;5.50;99.90;;;;;;5089744;28;20574;-55
2022/01/29 09:12:32;;;;;;;10.00;8.10;;;5.50;99.90;;;;;;5090029;28;20254;-55
2022/01/29 09:15:01;;;;;;;8.93;7.57;;;5.50;99.90;;;;;;5084581;28;20625;-55
2022/01/29 09:17:30;;;;;;;8.90;7.30;;;5.60;99.90;;;;;;5088068;28;20826;-55
2022/01/29 09:19:58;;;;;;;8.67;7.27;;;5.60;99.90;;;;;;5085716;28;20248;-56
2022/01/29 09:22:26;;;;;;;9.53;8.50;;;5.60;99.90;;;;;;5085603;28;20582;-55
2022/01/29 09:24:54;;;;;;;9.10;6.73;;;5.60;99.90;;;;;;5083377;28;20618;-55
2022/01/29 09:27:22;;;;;;;10.83;6.57;;;5.60;99.90;;;;;;5088791;28;20228;-56
2022/01/29 09:29:51;;;;;;;9.03;7.60;;;5.60;99.90;;;;;;5089787;28;20232;-55
2022/01/29 09:32:19;;;;;;;7.93;6.63;;;5.60;99.90;;;;;;5089719;28;20326;-55
2022/01/29 09:34:48;;;;;;;8.10;6.90;;;5.70;99.90;;;;;;5089324;28;20674;-55
2022/01/29 09:37:16;;;;;;;8.60;7.07;;;5.70;99.90;;;;;;5089597;28;20232;-55
2022/01/29 09:39:44;;;;;;;6.60;5.73;;;5.70;99.90;;;;;;5087668;28;20260;-55
2022/01/29 09:42:13;;;;;;;7.43;5.90;;;5.70;99.90;;;;;;5087779;28;20642;-55
2022/01/29 09:44:42;;;;;;;8.67;6.87;;;5.70;99.90;;;;;;5089121;28;20238;-56
2022/01/29 09:47:11;;;;;;;7.77;6.20;;;5.70;99.90;;;;;;5087551;28;20202;-55
2022/01/29 09:49:39;;;;;;;7.93;6.70;;;5.70;99.90;;;;;;5087736;28;20208;-55
2022/01/29 09:52:09;;;;;;;8.63;6.57;;;5.70;99.90;;;;;;5088200;28;20228;-55
2022/01/29 09:54:38;;;;;;;8.23;6.27;;;5.70;99.90;;;;;;5087848;28;20204;-55
2022/01/29 09:57:06;;;;;;;8.47;6.97;;;5.80;99.90;;;;;;5089538;28;21183;-54
2022/01/29 09:59:35;;;;;;;9.00;6.57;;;5.80;99.90;;;;;;5085048;28;20201;-55
2022/01/29 10:02:03;;;;;;;8.93;6.77;;;5.80;99.90;;;;;;5089709;28;20656;-56
2022/01/29 10:04:46;;;;;;;7.97;6.53;;;5.80;99.90;;;;;;5089833;28;20205;-54
2022/01/29 10:07:17;;;;;;;8.37;7.37;;;5.90;99.90;;;;;;5089924;28;20230;-55
2022/01/29 10:09:46;;;;;;;8.50;7.00;;;5.80;99.90;;;;;;5094640;28;20458;-55
2022/01/29 10:12:26;;;;;;;9.97;7.50;;;5.90;99.90;;;;;;5089361;28;20895;-54
2022/01/29 10:14:57;;;;;;;9.43;7.23;;;5.90;99.90;;;;;;5084596;28;20204;-54
2022/01/29 10:17:47;;;;;;;8.67;6.70;;;5.90;99.90;;;;;;5086609;28;20235;-56
2022/01/29 10:20:18;;;;;;;6.73;6.03;;;5.90;99.90;;;;;;5088731;28;20217;-55
2022/01/29 10:22:51;;;;;;;8.00;6.67;;;6.00;99.90;;;;;;5090165;28;20232;-55
2022/01/29 10:25:22;;;;;;;8.23;5.93;;;6.10;99.90;;;;;;5089382;28;20246;-55
2022/01/29 10:28:11;;;;;;;7.20;6.10;;;6.10;99.90;;;;;;5096379;28;20245;-56
2022/01/29 10:30:58;;;;;;;8.60;6.67;;;6.20;99.90;;;;;;5085673;28;20205;-54
2022/01/29 10:33:28;;;;;;;6.53;5.67;;;6.20;99.90;;;;;;5091003;28;20590;-54
2022/01/29 10:35:58;;;;;;;6.97;6.23;;;6.20;99.90;;;;;;5090679;28;20201;-53
2022/01/29 10:38:29;;;;;;;10.13;7.77;;;6.30;99.90;;;;;;5089857;28;20208;-55
2022/01/29 10:41:20;;;;;;;7.90;6.93;;;6.40;99.90;;;;;;5092701;28;20222;-55
2022/01/29 10:44:18;;;;;;;6.90;6.20;;;6.50;99.90;;;;;;5095951;28;20224;-55
2022/01/29 10:46:48;;;;;;;7.00;6.30;;;6.60;99.90;;;;;;5070691;28;20203;-56
2022/01/29 10:49:19;;;;;;;8.53;6.77;;;6.60;99.90;;;;;;5080985;28;20834;-55
2022/01/29 10:51:59;;;;;;;7.97;6.40;;;6.60;99.90;;;;;;5086040;28;20197;-54
2022/01/29 10:54:29;;;;;;;6.47;5.83;;;6.50;99.90;;;;;;5087364;28;20795;-54
2022/01/29 10:57:00;;;;;;;7.63;6.80;;;6.50;99.90;;;;;;5092923;28;20212;-55
2022/01/29 10:59:30;;;;;;;7.50;5.97;;;6.50;99.90;;;;;;5086921;28;20207;-55
2022/01/29 11:02:00;;;;;;;7.30;6.27;;;6.50;99.90;;;;;;5081867;28;20875;-55
2022/01/29 11:04:30;;;;;;;6.80;6.10;;;6.60;99.90;;;;;;5092486;28;20246;-55
2022/01/29 11:07:02;;;;;;;7.50;6.07;;;6.50;99.90;;;;;;5092842;28;20593;-59
2022/01/29 11:09:33;;;;;;;6.77;6.07;;;6.50;99.90;;;;;;5092759;28;20839;-58
2022/01/29 11:12:04;;;;;;;8.40;6.03;;;6.40;99.90;;;;;;5092242;28;20257;-56
2022/01/29 11:14:35;;;;;;;7.80;6.90;;;6.30;99.90;;;;;;5092033;28;20814;-55
2022/01/29 11:17:04;;;;;;;10.00;7.93;;;6.30;99.90;;;;;;5092945;28;20206;-56
2022/01/29 11:19:33;;;;;;;10.30;7.63;;;6.30;99.90;;;;;;5092851;28;20267;-55
2022/01/29 11:22:05;;;;;;;9.73;8.07;;;6.20;99.90;;;;;;5093795;28;20223;-55
2022/01/29 11:24:37;;;;;;;11.20;8.17;;;6.30;99.90;;;;;;5095029;28;20203;-55
2022/01/29 11:27:22;;;;;;;12.27;9.43;;;6.30;99.90;;;;;;5093540;28;20232;-55
2022/01/29 11:30:00;;;;;;;11.30;9.17;;;6.30;99.90;;;;;;5093951;28;20581;-54
2022/01/29 11:32:35;;;;;;;9.73;8.00;;;6.30;99.90;;;;;;5093844;28;20224;-55
2022/01/29 11:35:15;;;;;;;10.57;8.13;;;6.30;99.90;;;;;;5093287;28;20196;-55
2022/01/29 11:37:53;;;;;;;11.30;8.83;;;6.20;99.90;;;;;;5093881;28;20249;-54
2022/01/29 11:40:34;;;;;;;12.87;8.90;;;6.30;99.90;;;;;;5093304;28;20207;-55
2022/01/29 11:43:24;;;;;;;10.80;9.00;;;6.20;99.90;;;;;;5083509;28;20263;-55
2022/01/29 11:45:57;;;;;;;11.10;8.63;;;6.30;99.90;;;;;;5092796;28;20220;-54
2022/01/29 11:51:44;;;;;;;9.00;7.50;;;6.40;99.90;;;;;;5078480;28;20736;-55
2022/01/29 11:54:24;;;;;;;11.10;8.37;;;6.40;99.90;;;;;;5093573;28;20282;-56
2022/01/29 11:57:15;;;;;;;10.43;7.57;;;6.40;99.90;;;;;;5092723;28;20240;-55
2022/01/29 11:59:43;;;;;;;8.20;6.90;;;6.40;99.90;;;;;;5092099;28;20212;-55
2022/01/29 12:02:39;;;;;;;8.93;7.50;;;6.50;99.90;;;;;;5090514;28;20261;-56
2022/01/29 12:05:30;;;;;;;10.83;7.37;;;6.60;99.90;;;;;;5065045;28;20209;-56
2022/01/29 12:08:14;;;;;;;10.23;8.50;;;6.60;99.90;;;;;;5092010;28;20264;-55
2022/01/29 12:10:52;;;;;;;7.90;6.80;;;6.60;99.90;;;;;;5092332;28;20691;-55
2022/01/29 12:13:22;;;;;;;7.70;6.67;;;6.70;99.90;;;;;;5072535;28;20238;-55
2022/01/29 12:15:56;;;;;;;11.03;7.30;;;6.70;99.90;;;;;;5073315;28;20207;-56
2022/01/29 12:18:34;;;;;;;8.03;6.97;;;6.60;99.90;;;;;;5096127;28;20223;-55
2022/01/29 12:21:04;;;;;;;9.97;7.20;;;6.50;99.90;;;;;;5112715;28;20243;-56
2022/01/29 12:23:46;;;;;;;10.00;8.00;;;6.50;99.90;;;;;;5104961;28;20277;-55
2022/01/29 12:26:21;;;;;;;11.00;8.30;;;6.50;99.90;;;;;;5093290;28;20277;-55
2022/01/29 12:28:52;;;;;;;10.33;8.17;;;6.50;99.90;;;;;;5092200;28;20726;-56
2022/01/29 12:31:21;;;;;;;8.97;7.50;;;6.50;99.90;;;;;;5077844;28;20688;-55
2022/01/29 12:33:49;;;;;;;7.80;6.90;;;6.60;99.90;;;;;;5067733;28;20234;-55
2022/01/29 12:36:18;;;;;;;8.97;7.37;;;6.60;99.90;;;;;;5076749;28;20208;-56
2022/01/29 12:38:46;;;;;;;7.70;6.77;;;6.60;99.90;;;;;;5079632;28;20261;-55
2022/01/29 12:41:24;;;;;;;8.30;7.40;;;6.60;99.90;;;;;;5084808;28;20228;-56
2022/01/29 12:43:58;;;;;;;7.03;6.00;;;6.60;99.90;;;;;;5080081;28;20283;-55
2022/01/29 12:46:28;;;;;;;8.00;6.10;;;6.60;99.90;;;;;;5082211;28;20222;-55
2022/01/29 12:49:06;;;;;;;8.17;6.33;;;6.60;99.90;;;;;;5086780;28;20197;-55
2022/01/29 12:51:35;;;;;;;7.00;5.90;;;6.70;99.90;;;;;;5088047;28;20595;-54
2022/01/29 12:54:07;;;;;;;6.43;5.70;;;6.80;99.90;;;;;;5085238;28;20211;-55
2022/01/29 12:56:37;;;;;;;7.40;5.87;;;7.00;99.90;;;;;;5089200;28;20247;-55
2022/01/29 12:59:09;;;;;;;7.70;6.60;;;7.00;99.90;;;;;;5087820;28;20204;-55
2022/01/29 13:01:38;;;;;;;8.67;6.70;;;7.10;99.90;;;;;;5094060;28;20248;-55
2022/01/29 13:04:08;;;;;;;6.03;5.53;;;7.10;99.90;;;;;;5089804;28;20209;-55
2022/01/29 13:06:37;;;;;;;5.23;4.73;;;7.20;99.90;;;;;;5096494;28;20231;-55
2022/01/29 13:09:19;;;;;;;6.13;5.10;;;7.20;99.90;;;;;;5091302;28;20298;-55
2022/01/29 13:11:49;;;;;;;6.97;5.10;;;7.20;99.90;;;;;;5093443;28;20856;-55
2022/01/29 13:14:20;;;;;;;5.63;5.00;;;7.10;99.90;;;;;;5089932;28;20615;-55